Time;durP1;ratioP1;P1;durP2;ratioP2;P2;SDS_P1;SDS_P2;PMS_P1;PMS_P2;Temp;Humidity;BMP_temperature;BMP_pressure;BME280_temperature;BME280_humidity;BME280_pressure;Samples;Min_cycle;Max_cycle;Signal;HPM_P1;HPM_P2
2022/03/19 00:00:53;;;;;;;;;;;;;;;16.55;59.02;100867.13;2092666;28;19919;-46
2022/03/19 00:01:53;;;;;;;;;;;;;;;16.56;58.87;100860.72;2097258;28;19912;-46
2022/03/19 00:02:54;;;;;;;;;;;;;;;16.56;58.96;100860.72;2073055;28;19936;-46
2022/03/19 00:03:54;;;;;;;;;;;;;;;16.57;58.99;100857.00;2082585;28;19999;-46
2022/03/19 00:04:54;;;;;;;;;;;;;;;16.56;59.02;100863.44;2088514;28;19916;-46
2022/03/19 00:05:55;;;;;;;;;;;;;;;16.56;59.30;100870.72;2095838;28;19915;-48
2022/03/19 00:06:55;;;;;;;;;;;;;;;16.55;58.97;100867.13;2090533;28;19919;-47
2022/03/19 00:07:56;;;;;;;;;;;;;;;16.55;59.06;100861.69;2088555;28;19935;-47
2022/03/19 00:08:56;;;;;;;;;;;;;;;16.55;59.14;100861.69;2083344;28;19927;-47
2022/03/19 00:09:57;;;;;;;;;;;;;;;16.55;58.96;100866.28;2079168;28;19920;-46
2022/03/19 00:10:59;;;;;;;;;;;;;;;16.54;59.12;100870.84;2080397;28;19971;-46
2022/03/19 00:11:59;;;;;;;;;;;;;;;16.55;59.15;100872.56;2090831;28;19932;-46
2022/03/19 00:13:00;;;;;;;;;;;;;;;16.54;59.05;100868.13;2086342;28;20321;-46
2022/03/19 00:14:00;;;;;;;;;;;;;;;16.54;59.14;100870.84;2087072;28;20288;-47
2022/03/19 00:15:01;;;;;;;;;;;;;;;16.54;59.07;100870.84;2088952;28;19921;-45
2022/03/19 00:16:01;;;;;;;;;;;;;;;16.55;59.08;100869.84;2097671;28;19956;-47
2022/03/19 00:17:01;;;;;;;;;;;;;;;16.53;59.17;100858.22;2092825;28;19919;-47
2022/03/19 00:18:02;;;;;;;;;;;;;;;16.53;59.11;100866.38;2093289;28;20346;-47
2022/03/19 00:19:02;;;;;;;;;;;;;;;16.54;59.07;100865.41;2092198;28;19927;-46
2022/03/19 00:20:04;;;;;;;;;;;;;;;16.52;59.05;100864.66;2091209;28;19920;-45
2022/03/19 00:21:04;;;;;;;;;;;;;;;16.54;59.22;100864.53;2091658;28;19931;-47
2022/03/19 00:22:05;;;;;;;;;;;;;;;16.53;59.08;100854.63;2092600;28;20280;-48
2022/03/19 00:23:06;;;;;;;;;;;;;;;16.53;59.14;100863.66;2090909;28;19985;-46
2022/03/19 00:24:06;;;;;;;;;;;;;;;16.52;59.36;100856.47;2086423;28;20242;-45
2022/03/19 00:25:08;;;;;;;;;;;;;;;16.54;59.21;100848.22;2089891;28;19920;-47
2022/03/19 00:26:09;;;;;;;;;;;;;;;16.52;59.09;100851.03;2091214;28;20397;-46
2022/03/19 00:27:09;;;;;;;;;;;;;;;16.53;59.09;100847.31;2085669;28;19939;-46
2022/03/19 00:28:10;;;;;;;;;;;;;;;16.53;59.48;100847.31;2085623;28;20005;-46
2022/03/19 00:29:10;;;;;;;;;;;;;;;16.55;59.31;100856.25;2074885;28;20349;-46
2022/03/19 00:30:11;;;;;;;;;;;;;;;16.54;59.07;100848.22;2072665;28;19964;-48
2022/03/19 00:31:11;;;;;;;;;;;;;;;16.55;59.25;100844.50;2087946;28;20242;-46
2022/03/19 00:32:11;;;;;;;;;;;;;;;16.55;59.45;100845.34;2092991;28;19920;-46
2022/03/19 00:33:12;;;;;;;;;;;;;;;16.55;59.20;100845.34;2092841;28;19920;-46
2022/03/19 00:34:13;;;;;;;;;;;;;;;16.55;59.23;100839.91;2091282;28;19927;-47
2022/03/19 00:35:15;;;;;;;;;;;;;;;16.56;59.10;100836.22;2089833;28;19927;-46
2022/03/19 00:36:15;;;;;;;;;;;;;;;16.58;59.06;100845.13;2089939;28;19920;-47
2022/03/19 00:37:15;;;;;;;;;;;;;;;16.57;59.16;100840.66;2081237;28;19917;-47
2022/03/19 00:38:16;;;;;;;;;;;;;;;16.58;58.89;100842.41;2095305;28;19924;-47
2022/03/19 00:39:16;;;;;;;;;;;;;;;16.58;59.12;100849.69;2089188;28;19963;-46
2022/03/19 00:40:18;;;;;;;;;;;;;;;16.58;59.10;100847.84;2088050;28;19944;-47
2022/03/19 00:41:18;;;;;;;;;;;;;;;16.61;59.09;100846.75;2092976;28;20137;-46
2022/03/19 00:42:19;;;;;;;;;;;;;;;16.59;59.06;100846.00;2100026;28;19919;-48
2022/03/19 00:43:22;;;;;;;;;;;;;;;16.59;59.11;100841.44;2088435;28;19916;-47
2022/03/19 00:44:22;;;;;;;;;;;;;;;16.59;59.10;100838.72;2091315;28;19931;-47
2022/03/19 00:45:22;;;;;;;;;;;;;;;16.59;59.14;100846.88;2078162;28;19999;-46
2022/03/19 00:46:23;;;;;;;;;;;;;;;16.61;59.03;100844.00;2096018;28;20264;-47
2022/03/19 00:47:23;;;;;;;;;;;;;;;16.60;58.79;100848.59;2093833;28;19912;-46
2022/03/19 00:48:23;;;;;;;;;;;;;;;16.60;58.96;100843.16;2089586;28;19941;-46
2022/03/19 00:49:23;;;;;;;;;;;;;;;16.61;59.06;100849.47;2099866;28;19927;-46
2022/03/19 00:50:24;;;;;;;;;;;;;;;16.60;58.82;100843.16;2090381;28;20642;-47
2022/03/19 00:51:24;;;;;;;;;;;;;;;16.60;58.96;100847.72;2095147;28;19999;-50
2022/03/19 00:52:24;;;;;;;;;;;;;;;16.60;58.84;100854.03;2101297;28;19919;-48
2022/03/19 00:53:25;;;;;;;;;;;;;;;16.59;58.97;100852.31;2087360;28;19912;-51
2022/03/19 00:54:25;;;;;;;;;;;;;;;16.60;59.00;100848.59;2089975;28;19924;-47
2022/03/19 00:55:25;;;;;;;;;;;;;;;16.60;59.12;100848.59;2096319;28;19912;-46
2022/03/19 00:56:25;;;;;;;;;;;;;;;16.59;59.14;100848.72;2092690;28;20023;-50
2022/03/19 00:57:26;;;;;;;;;;;;;;;16.59;58.99;100846.88;2099801;28;20007;-46
2022/03/19 00:58:26;;;;;;;;;;;;;;;16.59;59.01;100851.47;2092621;28;20022;-46
2022/03/19 00:59:27;;;;;;;;;;;;;;;16.58;58.93;100845.13;2097625;28;19938;-48
2022/03/19 01:00:27;;;;;;;;;;;;;;;16.58;59.10;100850.56;2094127;28;19927;-47
2022/03/19 01:01:28;;;;;;;;;;;;;;;16.59;58.97;100846.88;2093976;28;19939;-49
2022/03/19 01:02:28;;;;;;;;;;;;;;;16.57;59.17;100842.53;2091723;28;19964;-46
2022/03/19 01:03:29;;;;;;;;;;;;;;;16.58;59.11;100845.13;2092464;28;19944;-46
2022/03/19 01:04:29;;;;;;;;;;;;;;;16.58;59.11;100842.41;2091279;28;19923;-46
2022/03/19 01:05:29;;;;;;;;;;;;;;;16.59;59.10;100846.00;2096361;28;19951;-47
2022/03/19 01:06:30;;;;;;;;;;;;;;;16.58;58.84;100850.56;2092821;28;19951;-47
2022/03/19 01:07:30;;;;;;;;;;;;;;;16.59;59.03;100846.88;2092619;28;19919;-48
2022/03/19 01:08:30;;;;;;;;;;;;;;;16.58;59.10;100845.13;2094338;28;19916;-48
2022/03/19 01:09:30;;;;;;;;;;;;;;;16.59;58.99;100856.91;2092661;28;19928;-47
2022/03/19 01:10:31;;;;;;;;;;;;;;;16.59;58.99;100846.88;2094888;28;20377;-46
2022/03/19 01:11:31;;;;;;;;;;;;;;;16.58;59.07;100850.56;2091699;28;20125;-49
2022/03/19 01:12:31;;;;;;;;;;;;;;;16.58;59.12;100845.13;2092789;28;19920;-47
2022/03/19 01:13:34;;;;;;;;;;;;;;;16.58;58.99;100845.13;2097104;28;20323;-47
2022/03/19 01:14:34;;;;;;;;;;;;;;;16.58;59.09;100847.84;2090208;28;19927;-47
2022/03/19 01:15:35;;;;;;;;;;;;;;;16.58;59.02;100845.13;2096062;28;20042;-49
2022/03/19 01:16:35;;;;;;;;;;;;;;;16.58;58.99;100845.13;2096257;28;19916;-47
2022/03/19 01:17:36;;;;;;;;;;;;;;;16.59;59.07;100846.00;2093946;28;19923;-45
2022/03/19 01:18:37;;;;;;;;;;;;;;;16.59;59.08;100852.31;2091428;28;19973;-45
2022/03/19 01:19:52;;;;;;;;;;;;;;;16.59;58.94;100846.88;2098691;28;19916;-45
2022/03/19 01:20:53;;;;;;;;;;;;;;;16.59;59.07;100841.44;2090020;28;19941;-46
2022/03/19 01:21:53;;;;;;;;;;;;;;;16.60;59.30;100848.59;2090186;28;19920;-46
2022/03/19 01:22:54;;;;;;;;;;;;;;;16.59;58.93;100837.84;2093670;28;20402;-45
2022/03/19 01:23:54;;;;;;;;;;;;;;;16.59;59.04;100838.72;2093487;28;19916;-45
2022/03/19 01:24:55;;;;;;;;;;;;;;;16.59;59.04;100841.44;2090300;28;20475;-46
2022/03/19 01:25:55;;;;;;;;;;;;;;;16.60;59.11;100839.56;2092981;28;19948;-46
2022/03/19 01:26:56;;;;;;;;;;;;;;;16.60;59.02;100843.16;2091004;28;19924;-46
2022/03/19 01:27:56;;;;;;;;;;;;;;;16.60;59.15;100845.88;2086535;28;19916;-46
2022/03/19 01:28:56;;;;;;;;;;;;;;;16.60;59.08;100845.88;2095821;28;20382;-45
2022/03/19 01:29:57;;;;;;;;;;;;;;;16.60;59.07;100845.88;2092729;28;19959;-46
2022/03/19 01:30:57;;;;;;;;;;;;;;;16.61;59.06;100839.47;2096438;28;19950;-46
2022/03/19 01:31:57;;;;;;;;;;;;;;;16.61;59.05;100844.00;2088490;28;20010;-46
2022/03/19 01:32:58;;;;;;;;;;;;;;;16.59;59.17;100836.00;2093512;28;19919;-46
2022/03/19 01:33:58;;;;;;;;;;;;;;;16.61;59.09;100842.19;2092916;28;19924;-47
2022/03/19 01:34:58;;;;;;;;;;;;;;;16.62;59.02;100841.19;2088608;28;20225;-47
2022/03/19 01:35:59;;;;;;;;;;;;;;;16.61;58.99;100844.91;2092804;28;20321;-48
2022/03/19 01:36:59;;;;;;;;;;;;;;;16.61;58.92;100839.47;2090398;28;19916;-46
2022/03/19 01:37:59;;;;;;;;;;;;;;;16.62;58.82;100846.63;2089696;28;19920;-48
2022/03/19 01:38:59;;;;;;;;;;;;;;;16.62;58.96;100846.63;2095366;28;19920;-46
2022/03/19 01:40:00;;;;;;;;;;;;;;;16.62;59.11;100846.63;2094831;28;19938;-51
2022/03/19 01:41:00;;;;;;;;;;;;;;;16.63;59.19;100848.34;2096891;28;19964;-47
2022/03/19 01:42:01;;;;;;;;;;;;;;;16.62;59.00;100843.91;2091454;28;20690;-46
2022/03/19 01:43:01;;;;;;;;;;;;;;;16.61;58.92;100842.19;2089658;28;19978;-48
2022/03/19 01:44:02;;;;;;;;;;;;;;;16.60;59.01;100840.44;2090080;28;19943;-49
2022/03/19 01:45:04;;;;;;;;;;;;;;;16.62;58.96;100841.19;2090733;28;19920;-47
2022/03/19 01:46:04;;;;;;;;;;;;;;;16.62;58.83;100841.19;2092295;28;19916;-46
2022/03/19 01:47:10;;;;;;;;;;;;;;;16.62;59.09;100833.03;2092831;28;19922;-46
2022/03/19 01:48:10;;;;;;;;;;;;;;;16.62;58.86;100835.75;2091775;28;20398;-47
2022/03/19 01:49:10;;;;;;;;;;;;;;;16.63;58.94;100831.16;2094682;28;19916;-46
2022/03/19 01:50:11;;;;;;;;;;;;;;;16.62;59.03;100833.03;2090299;28;19924;-46
2022/03/19 01:51:12;;;;;;;;;;;;;;;16.63;58.81;100826.59;2090943;28;20545;-46
2022/03/19 01:52:12;;;;;;;;;;;;;;;16.64;58.79;100830.19;2086724;28;19908;-47
2022/03/19 01:53:12;;;;;;;;;;;;;;;16.63;59.01;100836.59;2093997;28;19912;-48
2022/03/19 01:54:13;;;;;;;;;;;;;;;16.63;58.78;100832.03;2086558;28;19916;-48
2022/03/19 01:55:15;;;;;;;;;;;;;;;16.62;59.13;100830.31;2092018;28;20164;-46
2022/03/19 01:56:16;;;;;;;;;;;;;;;16.63;59.08;100831.16;2095405;28;19916;-50
2022/03/19 01:57:24;;;;;;;;;;;;;;;16.62;58.87;100833.03;2096808;28;19926;-49
2022/03/19 01:58:24;;;;;;;;;;;;;;;16.63;58.81;100832.03;2097467;28;20027;-45
2022/03/19 01:59:26;;;;;;;;;;;;;;;16.63;58.92;100832.03;2090210;28;19970;-47
2022/03/19 02:00:26;;;;;;;;;;;;;;;16.62;58.85;100830.31;2086978;28;19939;-46
2022/03/19 02:01:27;;;;;;;;;;;;;;;16.62;58.97;100824.84;2092969;28;20005;-46
2022/03/19 02:02:28;;;;;;;;;;;;;;;16.63;58.89;100823.84;2096562;28;20588;-46
2022/03/19 02:03:28;;;;;;;;;;;;;;;16.63;58.71;100834.75;2087905;28;19916;-46
2022/03/19 02:04:29;;;;;;;;;;;;;;;16.64;58.80;100828.34;2090168;28;19920;-46
2022/03/19 02:05:30;;;;;;;;;;;;;;;16.63;58.98;100837.47;2089963;28;20431;-46
2022/03/19 02:06:30;;;;;;;;;;;;;;;16.62;58.69;100832.16;2090854;28;19956;-46
2022/03/19 02:07:31;;;;;;;;;;;;;;;16.63;58.80;100832.03;2097414;28;19916;-47
2022/03/19 02:08:32;;;;;;;;;;;;;;;16.63;58.79;100832.03;2086296;28;19966;-49
2022/03/19 02:09:32;;;;;;;;;;;;;;;16.62;58.85;100830.31;2097158;28;19919;-47
2022/03/19 02:10:34;;;;;;;;;;;;;;;16.60;58.91;100824.09;2090734;28;19922;-46
2022/03/19 02:11:35;;;;;;;;;;;;;;;16.61;58.83;100833.13;2093931;28;19925;-46
2022/03/19 02:12:36;;;;;;;;;;;;;;;16.60;58.88;100829.53;2092448;28;19920;-46
2022/03/19 02:13:37;;;;;;;;;;;;;;;16.60;59.05;100831.41;2087328;28;19921;-46
2022/03/19 02:14:38;;;;;;;;;;;;;;;16.60;58.75;100826.81;2090677;28;19927;-46
2022/03/19 02:15:38;;;;;;;;;;;;;;;16.60;58.98;100832.25;2084951;28;19921;-48
2022/03/19 02:16:40;;;;;;;;;;;;;;;16.59;58.77;100827.81;2086872;28;19920;-46
2022/03/19 02:17:40;;;;;;;;;;;;;;;16.59;58.99;100830.53;2097579;28;19922;-49
2022/03/19 02:18:41;;;;;;;;;;;;;;;16.58;58.91;100828.78;2088248;28;19920;-45
2022/03/19 02:19:51;;;;;;;;;;;;;;;16.60;58.96;100825.97;2095419;28;19931;-46
2022/03/19 02:20:55;;;;;;;;;;;;;;;16.59;58.79;100822.38;2084369;28;19921;-48
2022/03/19 02:21:56;;;;;;;;;;;;;;;16.59;59.01;100822.38;2090514;28;19915;-46
2022/03/19 02:25:37;;;;;;;;;;;;;;;16.61;59.11;100822.25;2089633;28;19920;-45
2022/03/19 02:26:41;;;;;;;;;;;;;;;16.61;58.82;100823.13;2085693;28;20217;-47
2022/03/19 02:27:42;;;;;;;;;;;;;;;16.62;58.78;100822.13;2090161;28;20269;-47
2022/03/19 02:28:42;;;;;;;;;;;;;;;16.63;59.02;100823.84;2089227;28;20006;-48
2022/03/19 02:29:42;;;;;;;;;;;;;;;16.62;58.86;100821.28;2089784;28;19913;-46
2022/03/19 02:30:43;;;;;;;;;;;;;;;16.62;58.85;100815.81;2084343;28;19995;-46
2022/03/19 02:31:44;;;;;;;;;;;;;;;16.63;58.93;100823.84;2092352;28;20001;-46
2022/03/19 02:32:49;;;;;;;;;;;;;;;16.64;59.02;100820.16;2085638;28;19966;-46
2022/03/19 02:33:49;;;;;;;;;;;;;;;16.65;58.69;100821.03;2098004;28;19920;-46
2022/03/19 02:34:50;;;;;;;;;;;;;;;16.63;59.05;100823.84;2082676;28;19920;-46
2022/03/19 02:35:50;;;;;;;;;;;;;;;16.65;58.93;100827.34;2078711;28;19927;-47
2022/03/19 02:36:51;;;;;;;;;;;;;;;16.64;58.89;100820.16;2088954;28;19920;-46
2022/03/19 02:37:51;;;;;;;;;;;;;;;16.65;58.82;100819.16;2092583;28;20523;-47
2022/03/19 02:38:51;;;;;;;;;;;;;;;16.65;58.69;100819.16;2092245;28;20216;-48
2022/03/19 02:39:52;;;;;;;;;;;;;;;16.65;58.92;100816.44;2083851;28;19925;-47
2022/03/19 02:40:52;;;;;;;;;;;;;;;16.66;58.87;100820.94;2089193;28;20562;-48
2022/03/19 02:41:52;;;;;;;;;;;;;;;16.68;58.79;100823.50;2091250;28;19927;-46
2022/03/19 02:42:55;;;;;;;;;;;;;;;16.66;58.84;100822.78;2087623;28;19920;-48
2022/03/19 02:43:56;;;;;;;;;;;;;;;16.66;58.77;100823.66;2079536;28;20026;-47
2022/03/19 02:44:57;;;;;;;;;;;;;;;16.67;58.84;100828.09;2074909;28;19983;-46
2022/03/19 02:45:58;;;;;;;;;;;;;;;16.65;58.95;100819.16;2092452;28;19916;-46
2022/03/19 02:46:59;;;;;;;;;;;;;;;16.65;58.84;100815.59;2085061;28;19920;-46
2022/03/19 02:48:00;;;;;;;;;;;;;;;16.65;58.79;100821.91;2085439;28;19916;-48
2022/03/19 02:49:00;;;;;;;;;;;;;;;16.64;58.86;100822.91;2089716;28;19916;-46
2022/03/19 02:50:00;;;;;;;;;;;;;;;16.63;59.10;100815.69;2090225;28;20346;-47
2022/03/19 02:51:01;;;;;;;;;;;;;;;16.64;58.70;100828.34;2093691;28;20371;-47
2022/03/19 02:52:02;;;;;;;;;;;;;;;16.64;58.79;100828.34;2086814;28;19909;-47
2022/03/19 02:53:12;;;;;;;;;;;;;;;16.63;58.80;100823.84;2090294;28;19908;-46
2022/03/19 02:54:13;;;;;;;;;;;;;;;16.64;58.87;100827.47;2085941;28;20019;-48
2022/03/19 02:55:14;;;;;;;;;;;;;;;16.62;59.05;100819.41;2092880;28;19999;-46
2022/03/19 02:56:14;;;;;;;;;;;;;;;16.63;58.87;100826.59;2096586;28;19923;-46
2022/03/19 02:57:14;;;;;;;;;;;;;;;16.63;59.13;100826.59;2093276;28;20051;-47
2022/03/19 02:58:15;;;;;;;;;;;;;;;16.63;58.96;100821.13;2092392;28;20065;-46
2022/03/19 02:59:20;;;;;;;;;;;;;;;16.62;58.83;100819.41;2085055;28;19970;-46
2022/03/19 03:00:22;;;;;;;;;;;;;;;16.62;58.76;100819.41;2078241;28;19924;-46
2022/03/19 03:01:22;;;;;;;;;;;;;;;16.62;58.96;100819.41;2088720;28;20947;-47
2022/03/19 03:02:22;;;;;;;;;;;;;;;16.61;58.83;100817.69;2087384;28;19912;-46
2022/03/19 03:03:23;;;;;;;;;;;;;;;16.62;58.75;100824.00;2092635;28;19933;-46
2022/03/19 03:04:24;;;;;;;;;;;;;;;16.62;59.04;100824.84;2089940;28;19931;-46
2022/03/19 03:05:24;;;;;;;;;;;;;;;16.62;59.01;100815.81;2089172;28;19935;-48
2022/03/19 03:06:25;;;;;;;;;;;;;;;16.61;58.94;100814.97;2091597;28;20247;-46
2022/03/19 03:07:25;;;;;;;;;;;;;;;16.61;59.14;100820.41;2094601;28;19919;-46
2022/03/19 03:08:26;;;;;;;;;;;;;;;16.62;58.83;100819.41;2088787;28;19956;-45
2022/03/19 03:09:27;;;;;;;;;;;;;;;16.62;58.96;100816.69;2089253;28;19916;-47
2022/03/19 03:10:28;;;;;;;;;;;;;;;16.62;59.04;100813.09;2091886;28;20451;-48
2022/03/19 03:11:28;;;;;;;;;;;;;;;16.62;59.13;100818.56;2085991;28;20045;-46
2022/03/19 03:12:28;;;;;;;;;;;;;;;16.63;59.19;100820.28;2087345;28;19920;-47
2022/03/19 03:13:29;;;;;;;;;;;;;;;16.62;58.75;100813.97;2093872;28;19919;-47
2022/03/19 03:14:29;;;;;;;;;;;;;;;16.63;59.08;100812.97;2090118;28;19916;-48
2022/03/19 03:15:29;;;;;;;;;;;;;;;16.62;59.05;100810.38;2090726;28;19965;-49
2022/03/19 03:16:30;;;;;;;;;;;;;;;16.63;58.95;100810.25;2093818;28;20616;-47
2022/03/19 03:17:33;;;;;;;;;;;;;;;16.64;58.87;100811.16;2091159;28;19966;-49
2022/03/19 03:18:34;;;;;;;;;;;;;;;16.64;58.72;100817.44;2091945;28;20002;-47
2022/03/19 03:19:35;;;;;;;;;;;;;;;16.63;58.89;100815.69;2087509;28;19998;-49
2022/03/19 03:20:35;;;;;;;;;;;;;;;16.64;58.87;100812.00;2088768;28;19927;-47
2022/03/19 03:21:36;;;;;;;;;;;;;;;16.65;59.08;100811.00;2090286;28;19930;-46
2022/03/19 03:22:37;;;;;;;;;;;;;;;16.67;58.84;100817.22;2091151;28;19978;-47
2022/03/19 03:23:38;;;;;;;;;;;;;;;16.67;58.79;100808.19;2087046;28;19924;-48
2022/03/19 03:24:38;;;;;;;;;;;;;;;16.68;58.78;100808.06;2088482;28;19926;-46
2022/03/19 03:25:38;;;;;;;;;;;;;;;16.67;58.80;100811.75;2089106;28;20492;-46
2022/03/19 03:26:39;;;;;;;;;;;;;;;16.66;58.83;100804.59;2086782;28;20369;-47
2022/03/19 03:27:39;;;;;;;;;;;;;;;16.68;58.89;100808.06;2086648;28;19920;-46
2022/03/19 03:28:40;;;;;;;;;;;;;;;16.67;58.93;100800.88;2086930;28;20006;-46
2022/03/19 03:29:41;;;;;;;;;;;;;;;16.67;58.64;100803.59;2093905;28;19967;-45
2022/03/19 03:30:42;;;;;;;;;;;;;;;16.67;58.63;100809.03;2092924;28;19919;-45
2022/03/19 03:31:42;;;;;;;;;;;;;;;16.66;58.63;100798.28;2093757;28;19919;-49
2022/03/19 03:32:43;;;;;;;;;;;;;;;16.68;58.98;100799.91;2086232;28;20615;-46
2022/03/19 03:33:44;;;;;;;;;;;;;;;16.67;58.82;100806.31;2085724;28;19963;-45
2022/03/19 03:34:44;;;;;;;;;;;;;;;16.66;58.65;100803.72;2087704;28;20795;-50
2022/03/19 03:35:44;;;;;;;;;;;;;;;16.65;58.92;100800.13;2091532;28;19924;-48
2022/03/19 03:36:45;;;;;;;;;;;;;;;16.66;58.92;100804.59;2091317;28;19919;-47
2022/03/19 03:37:45;;;;;;;;;;;;;;;16.66;58.99;100799.16;2085643;28;20509;-47
2022/03/19 03:38:46;;;;;;;;;;;;;;;16.67;58.75;100800.88;2087619;28;19912;-47
2022/03/19 03:39:46;;;;;;;;;;;;;;;16.65;58.76;100802.84;2088751;28;19920;-47
2022/03/19 03:40:46;;;;;;;;;;;;;;;16.65;58.73;100808.28;2089860;28;19920;-46
2022/03/19 03:41:47;;;;;;;;;;;;;;;16.66;58.85;100801.00;2087314;28;20380;-47
2022/03/19 03:42:48;;;;;;;;;;;;;;;16.65;59.06;100802.84;2093840;28;19926;-49
2022/03/19 03:43:48;;;;;;;;;;;;;;;16.66;58.75;100804.59;2094096;28;19920;-47
2022/03/19 03:44:48;;;;;;;;;;;;;;;16.65;58.64;100797.41;2090728;28;19924;-49
2022/03/19 03:45:49;;;;;;;;;;;;;;;16.66;58.92;100804.59;2089690;28;20161;-47
2022/03/19 03:46:49;;;;;;;;;;;;;;;16.66;58.94;100807.31;2088717;28;19926;-47
2022/03/19 03:47:50;;;;;;;;;;;;;;;16.66;58.84;100804.59;2087292;28;19966;-51
2022/03/19 03:48:50;;;;;;;;;;;;;;;16.68;58.97;100807.19;2085145;28;19920;-47
2022/03/19 03:49:53;;;;;;;;;;;;;;;16.67;58.88;100803.59;2092930;28;19920;-46
2022/03/19 03:50:55;;;;;;;;;;;;;;;16.67;58.88;100809.03;2081830;28;19913;-46
2022/03/19 03:51:56;;;;;;;;;;;;;;;16.65;58.78;100802.84;2085904;28;19931;-45
2022/03/19 03:52:56;;;;;;;;;;;;;;;16.68;58.95;100813.53;2092038;28;19967;-47
2022/03/19 03:53:56;;;;;;;;;;;;;;;16.68;58.64;100813.53;2088804;28;19977;-46
2022/03/19 03:54:57;;;;;;;;;;;;;;;16.67;58.77;100800.88;2092042;28;19920;-45
2022/03/19 03:55:57;;;;;;;;;;;;;;;16.67;58.75;100811.75;2095146;28;20389;-48
2022/03/19 03:56:58;;;;;;;;;;;;;;;16.66;58.90;100804.59;2091600;28;19967;-46
2022/03/19 03:57:59;;;;;;;;;;;;;;;16.66;58.96;100810.03;2092526;28;19977;-46
2022/03/19 03:58:59;;;;;;;;;;;;;;;16.65;58.84;100816.44;2097825;28;19975;-47
2022/03/19 04:00:01;;;;;;;;;;;;;;;16.66;59.00;100811.91;2090830;28;19924;-48
2022/03/19 04:01:01;;;;;;;;;;;;;;;16.65;58.85;100813.72;2091967;28;19916;-47
2022/03/19 04:02:02;;;;;;;;;;;;;;;16.65;59.00;100811.00;2083399;28;20030;-44
2022/03/19 04:03:04;;;;;;;;;;;;;;;16.64;58.63;100809.28;2079618;28;19913;-45
2022/03/19 04:04:04;;;;;;;;;;;;;;;16.65;58.88;100802.84;2095796;28;19924;-45
2022/03/19 04:05:06;;;;;;;;;;;;;;;16.64;58.85;100801.13;2092589;28;19999;-47
2022/03/19 04:06:07;;;;;;;;;;;;;;;16.63;58.79;100804.81;2097280;28;19923;-46
2022/03/19 04:07:07;;;;;;;;;;;;;;;16.65;58.82;100808.28;2091706;28;20600;-45
2022/03/19 04:08:07;;;;;;;;;;;;;;;16.64;58.70;100805.69;2091504;28;19920;-46
2022/03/19 04:09:08;;;;;;;;;;;;;;;16.65;58.79;100807.41;2092512;28;20259;-46
2022/03/19 04:10:08;;;;;;;;;;;;;;;16.65;58.87;100808.28;2091077;28;20394;-45
2022/03/19 04:11:09;;;;;;;;;;;;;;;16.66;58.92;100801.00;2091993;28;19916;-45
2022/03/19 04:12:09;;;;;;;;;;;;;;;16.65;58.94;100802.84;2094901;28;20433;-46
2022/03/19 04:13:09;;;;;;;;;;;;;;;16.65;58.94;100801.97;2088753;28;19920;-46
2022/03/19 04:14:10;;;;;;;;;;;;;;;16.65;58.97;100808.28;2086617;28;20170;-46
2022/03/19 04:15:10;;;;;;;;;;;;;;;16.65;59.02;100811.00;2091383;28;19962;-45
2022/03/19 04:16:11;;;;;;;;;;;;;;;16.66;58.76;100809.19;2093057;28;19967;-46
2022/03/19 04:17:11;;;;;;;;;;;;;;;16.67;58.90;100811.75;2089556;28;19974;-46
2022/03/19 04:18:13;;;;;;;;;;;;;;;16.67;58.87;100811.75;2093166;28;20303;-45
2022/03/19 04:19:14;;;;;;;;;;;;;;;16.69;58.90;100815.25;2086258;28;19917;-46
2022/03/19 04:20:15;;;;;;;;;;;;;;;16.68;58.70;100805.34;2097664;28;20305;-46
2022/03/19 04:21:15;;;;;;;;;;;;;;;16.69;58.87;100809.78;2089387;28;19920;-47
2022/03/19 04:22:16;;;;;;;;;;;;;;;16.69;58.71;100807.06;2092485;28;20323;-45
2022/03/19 04:23:16;;;;;;;;;;;;;;;16.68;58.89;100813.53;2093720;28;19919;-46
2022/03/19 04:24:16;;;;;;;;;;;;;;;16.69;58.78;100809.78;2090925;28;19929;-45
2022/03/19 04:25:17;;;;;;;;;;;;;;;16.69;58.80;100812.53;2092462;28;20337;-46
2022/03/19 04:26:18;;;;;;;;;;;;;;;16.70;58.73;100810.66;2094467;28;19920;-45
2022/03/19 04:27:18;;;;;;;;;;;;;;;16.70;58.72;100803.34;2090781;28;19964;-45
2022/03/19 04:28:19;;;;;;;;;;;;;;;16.70;58.72;100806.06;2091207;28;19920;-45
2022/03/19 04:29:19;;;;;;;;;;;;;;;16.71;58.72;100812.41;2081941;28;20055;-45
2022/03/19 04:30:21;;;;;;;;;;;;;;;16.70;58.79;100806.06;2096161;28;19992;-46
2022/03/19 04:31:22;;;;;;;;;;;;;;;16.71;58.85;100812.41;2087272;28;19920;-46
2022/03/19 04:32:23;;;;;;;;;;;;;;;16.70;58.64;100814.25;2092725;28;19965;-45
2022/03/19 04:33:23;;;;;;;;;;;;;;;16.71;58.76;100807.84;2091931;28;19920;-46
2022/03/19 04:34:23;;;;;;;;;;;;;;;16.71;58.73;100809.69;2092236;28;20155;-46
2022/03/19 04:36:44;;;;;;;;;;;;;;;16.71;58.77;100812.41;2083335;28;19955;-46
2022/03/19 04:37:44;;;;;;;;;;;;;;;16.70;58.54;100814.25;2098364;28;19951;-48
2022/03/19 04:38:45;;;;;;;;;;;;;;;16.70;58.74;100814.25;2088396;28;19916;-46
2022/03/19 04:39:45;;;;;;;;;;;;;;;16.70;58.88;100822.41;2089533;28;20178;-46
2022/03/19 04:40:46;;;;;;;;;;;;;;;16.70;58.79;100816.97;2085064;28;19916;-48
2022/03/19 04:41:46;;;;;;;;;;;;;;;16.70;58.77;100816.09;2083290;28;19998;-46
2022/03/19 04:42:46;;;;;;;;;;;;;;;16.69;58.58;100817.09;2087120;28;19916;-46
2022/03/19 04:43:47;;;;;;;;;;;;;;;16.70;58.85;100822.41;2088097;28;19916;-47
2022/03/19 04:44:47;;;;;;;;;;;;;;;16.69;58.70;100815.25;2090365;28;19920;-49
2022/03/19 04:45:48;;;;;;;;;;;;;;;16.70;58.69;100810.66;2087287;28;19916;-46
2022/03/19 04:46:48;;;;;;;;;;;;;;;16.69;58.72;100820.69;2092594;28;19916;-48
2022/03/19 04:47:49;;;;;;;;;;;;;;;16.69;58.81;100820.69;2092489;28;19916;-45
2022/03/19 04:48:50;;;;;;;;;;;;;;;16.68;58.74;100818.06;2088761;28;19917;-46
2022/03/19 04:49:50;;;;;;;;;;;;;;;16.66;58.68;100815.47;2091466;28;19916;-48
2022/03/19 04:50:50;;;;;;;;;;;;;;;16.68;58.65;100821.69;2095817;28;20115;-46
2022/03/19 04:51:51;;;;;;;;;;;;;;;16.67;58.73;100817.22;2092958;28;20180;-46
2022/03/19 04:52:53;;;;;;;;;;;;;;;16.67;59.05;100817.22;2087369;28;19924;-46
2022/03/19 04:53:53;;;;;;;;;;;;;;;16.66;58.73;100820.94;2091738;28;19974;-46
2022/03/19 04:54:57;;;;;;;;;;;;;;;16.65;59.02;100819.16;2093623;28;20769;-46
2022/03/19 04:55:57;;;;;;;;;;;;;;;16.66;58.83;100822.78;2091453;28;19955;-45
2022/03/19 04:56:58;;;;;;;;;;;;;;;16.66;58.95;100822.78;2091564;28;19924;-45
2022/03/19 04:57:58;;;;;;;;;;;;;;;16.65;58.74;100824.63;2085423;28;20263;-48
2022/03/19 04:58:59;;;;;;;;;;;;;;;16.66;58.90;100829.09;2086184;28;19923;-46
2022/03/19 05:00:00;;;;;;;;;;;;;;;16.66;58.81;100823.66;2086522;28;20192;-47
2022/03/19 05:01:00;;;;;;;;;;;;;;;16.66;59.07;100826.38;2094209;28;20249;-45
2022/03/19 05:02:00;;;;;;;;;;;;;;;16.65;58.86;100821.91;2087994;28;19920;-47
2022/03/19 05:03:01;;;;;;;;;;;;;;;16.67;58.70;100825.38;2093786;28;19942;-46
2022/03/19 05:04:01;;;;;;;;;;;;;;;16.66;58.95;100823.66;2083883;28;19920;-46
2022/03/19 05:05:02;;;;;;;;;;;;;;;16.68;58.87;100828.97;2085642;28;19935;-48
2022/03/19 05:06:02;;;;;;;;;;;;;;;16.67;58.77;100830.81;2087725;28;19919;-46
2022/03/19 05:07:03;;;;;;;;;;;;;;;16.68;58.75;100834.41;2083418;28;19912;-47
2022/03/19 05:08:05;;;;;;;;;;;;;;;16.67;58.75;100836.25;2093632;28;19916;-47
2022/03/19 05:11:43;;;;;;;;;;;;;;;16.70;59.00;100838.75;2091127;28;19928;-49
2022/03/19 05:12:43;;;;;;;;;;;;;;;16.70;58.87;100833.28;2097967;28;19912;-46
2022/03/19 05:13:44;;;;;;;;;;;;;;;16.71;58.80;100837.78;2088146;28;20429;-46
2022/03/19 05:14:45;;;;;;;;;;;;;;;16.70;58.70;100838.75;2086086;28;19939;-46
2022/03/19 05:15:45;;;;;;;;;;;;;;;16.71;58.68;100839.63;2100341;28;19926;-46
2022/03/19 05:16:45;;;;;;;;;;;;;;;16.71;58.79;100845.94;2088752;28;19942;-46
2022/03/19 05:17:45;;;;;;;;;;;;;;;16.71;58.77;100840.50;2097570;28;19919;-46
2022/03/19 05:18:46;;;;;;;;;;;;;;;16.71;58.62;100845.94;2088084;28;20319;-46